createdAt,value
2022-09-14T00:02:32.693Z,69.99
2022-09-14T00:06:04.187Z,70.14
2022-09-14T00:09:06.731Z,70.26
2022-09-14T00:11:51.204Z,70.46
2022-09-14T00:14:27.423Z,70.44
2022-09-14T00:17:03.538Z,70.58
2022-09-14T00:20:03.550Z,70.71
2022-09-14T00:22:31.309Z,70.46
2022-09-14T00:25:08.109Z,70.57
2022-09-14T00:27:44.579Z,70.26
2022-09-14T00:30:21.405Z,69.99
2022-09-14T00:32:57.408Z,70.09
2022-09-14T00:38:27.190Z,70.34
2022-09-14T00:41:05.307Z,70.09
2022-09-14T00:44:05.437Z,70.38
2022-09-14T00:47:06.521Z,70.45
2022-09-14T00:50:07.022Z,70.44
2022-09-14T00:53:07.509Z,70.55
2022-09-14T00:55:35.312Z,70.53
2022-09-14T00:58:20.856Z,70.38
2022-09-14T01:00:59.174Z,69.96
2022-09-14T01:06:47.192Z,70.22
2022-09-14T01:09:26.086Z,70.38
2022-09-14T01:12:20.448Z,70.41
2022-09-14T01:15:00.593Z,70.28
2022-09-14T01:17:48.969Z,70.32
2022-09-14T01:21:06.489Z,70.13
2022-09-14T01:24:07.292Z,70.11
2022-09-14T01:27:07.503Z,69.82
2022-09-14T01:30:16.662Z,69.93
2022-09-14T01:33:12.440Z,70.04
2022-09-14T01:35:55.511Z,70.05
2022-09-14T01:38:51.797Z,70.15
2022-09-14T01:41:31.432Z,70.16
2022-09-14T01:44:21.417Z,69.98
2022-09-14T01:47:03.707Z,69.50
2022-09-14T01:50:09.137Z,70.42
2022-09-14T01:53:09.125Z,71.20
2022-09-14T01:56:21.627Z,71.76
2022-09-14T01:59:05.932Z,71.10
2022-09-14T02:02:18.570Z,71.12
2022-09-14T02:05:01.163Z,70.33
2022-09-14T02:07:38.044Z,71.78
2022-09-14T02:10:29.257Z,71.69
2022-09-14T02:13:07.215Z,70.89
2022-09-14T02:15:36.284Z,70.43
2022-09-14T02:18:04.362Z,70.87
2022-09-14T02:20:39.817Z,71.38
2022-09-14T02:23:07.733Z,71.55
2022-09-14T02:25:36.495Z,71.60
2022-09-14T02:28:04.308Z,71.45
2022-09-14T02:30:49.403Z,71.28
2022-09-14T02:33:40.781Z,71.34
2022-09-14T02:36:16.653Z,70.94
2022-09-14T02:38:57.438Z,70.78
2022-09-14T02:41:59.107Z,70.95
2022-09-14T02:44:57.340Z,71.17
2022-09-14T02:48:02.517Z,71.38
2022-09-14T02:51:09.362Z,71.15
2022-09-14T02:54:38.796Z,71.44
2022-09-14T02:57:15.535Z,71.17
2022-09-14T02:59:54.030Z,70.56
2022-09-14T03:02:30.353Z,71.02
2022-09-14T03:05:06.655Z,71.24
2022-09-14T03:10:33.255Z,71.61
2022-09-14T03:13:09.401Z,71.30
2022-09-14T03:16:10.572Z,71.65
2022-09-14T03:19:12.378Z,71.01
2022-09-14T03:22:11.962Z,71.49
2022-09-14T03:25:12.633Z,71.47
2022-09-14T03:28:13.110Z,71.54
2022-09-14T03:31:13.283Z,71.25
2022-09-14T03:33:41.538Z,71.69
2022-09-14T03:36:29.844Z,71.89
2022-09-14T03:39:06.626Z,70.88
2022-09-14T03:41:42.396Z,71.20
2022-09-14T03:44:32.422Z,70.40
2022-09-14T03:47:08.729Z,71.03
2022-09-14T03:50:10.034Z,71.17
2022-09-14T03:53:10.086Z,71.18
2022-09-14T03:56:17.786Z,70.89
2022-09-14T03:58:54.520Z,70.61
2022-09-14T04:01:30.436Z,70.34
2022-09-14T04:04:07.930Z,70.40
2022-09-14T04:09:35.697Z,69.78
2022-09-14T04:12:12.716Z,69.57
2022-09-14T04:15:13.477Z,69.79
2022-09-14T04:17:42.142Z,69.81
2022-09-14T04:20:18.508Z,69.76
2022-09-14T04:22:56.534Z,69.65
2022-09-14T04:25:32.436Z,69.08
2022-09-14T04:28:20.030Z,69.23
2022-09-14T04:31:01.059Z,69.38
2022-09-14T04:33:38.488Z,69.25
2022-09-14T04:36:16.168Z,68.72
2022-09-14T04:39:16.705Z,69.11
2022-09-14T04:42:15.909Z,69.23
2022-09-14T04:44:43.489Z,69.21
2022-09-14T04:47:19.432Z,68.48
2022-09-14T04:52:37.505Z,68.55
2022-09-14T04:55:13.646Z,68.45
2022-09-14T04:58:14.193Z,68.68
2022-09-14T05:01:15.187Z,68.62
2022-09-14T05:04:15.344Z,68.81
2022-09-14T05:07:15.059Z,68.37
2022-09-14T05:10:15.138Z,68.44
2022-09-14T05:12:43.025Z,68.25
2022-09-14T05:16:42.254Z,68.36
2022-09-14T05:19:13.985Z,68.36
2022-09-14T05:22:15.508Z,68.25
2022-09-14T05:24:51.645Z,67.92
2022-09-14T05:27:27.681Z,68.15
2022-09-14T05:30:03.875Z,68.25
2022-09-14T05:32:40.654Z,68.19
2022-09-14T05:35:16.767Z,68.13
2022-09-14T05:38:17.386Z,68.31
2022-09-14T05:41:17.657Z,68.28
2022-09-14T05:44:17.774Z,68.46
2022-09-14T05:46:45.585Z,67.98
2022-09-14T05:49:21.619Z,68.43
2022-09-14T05:51:59.569Z,68.20
2022-09-14T05:54:35.584Z,68.29
2022-09-14T05:57:11.629Z,68.48
2022-09-14T05:59:47.637Z,68.63
2022-09-14T06:02:23.772Z,68.06
2022-09-14T06:05:00.648Z,68.45
2022-09-14T06:07:34.603Z,68.53
2022-09-14T06:13:17.388Z,68.54
2022-09-14T06:16:18.892Z,68.32
2022-09-14T06:19:19.797Z,68.02
2022-09-14T06:22:20.068Z,67.73
2022-09-14T06:25:19.850Z,67.50
2022-09-14T06:28:20.213Z,67.20
2022-09-14T06:31:22.603Z,66.73
2022-09-14T06:36:42.178Z,65.82
2022-09-14T06:39:18.222Z,65.59
2022-09-14T06:42:18.028Z,64.92
2022-09-14T06:45:18.964Z,65.13
2022-09-14T06:48:19.117Z,64.59
2022-09-14T06:51:20.185Z,64.54
2022-09-14T06:54:19.880Z,64.36
2022-09-14T06:56:47.705Z,63.93
2022-09-14T07:01:19.890Z,63.64
2022-09-14T07:04:20.177Z,64.01
2022-09-14T07:07:20.318Z,63.42
2022-09-14T07:10:20.397Z,63.56
2022-09-14T07:13:20.364Z,63.13
2022-09-14T07:16:20.683Z,63.21
2022-09-14T07:19:21.358Z,63.42
2022-09-14T07:21:50.310Z,63.02
2022-09-14T07:24:26.474Z,61.53
2022-09-14T07:27:02.779Z,59.75
2022-09-14T07:29:39.408Z,62.33
2022-09-14T07:32:15.512Z,62.56
2022-09-14T07:34:51.535Z,60.88
2022-09-14T07:37:27.476Z,62.16
2022-09-14T07:40:03.956Z,60.94
2022-09-14T07:42:38.722Z,59.86
2022-09-14T07:47:49.706Z,57.09
2022-09-14T07:50:27.055Z,59.35
2022-09-14T07:53:05.171Z,61.92
2022-09-14T07:55:41.660Z,61.49
2022-09-14T07:58:09.411Z,58.64
2022-09-14T08:03:10.711Z,58.37
2022-09-14T08:05:38.507Z,57.01
2022-09-14T08:08:15.141Z,58.96
2022-09-14T08:10:51.728Z,56.28
2022-09-14T08:13:19.859Z,58.02
2022-09-14T08:18:11.952Z,58.34
2022-09-14T08:20:47.998Z,58.72
2022-09-14T08:23:25.335Z,57.18
2022-09-14T08:26:26.311Z,53.65
2022-09-14T08:29:26.166Z,44.93
2022-09-14T08:32:02.178Z,44.90
2022-09-14T08:34:37.957Z,43.62
2022-09-14T08:37:14.195Z,41.12
2022-09-14T08:39:51.599Z,38.62
2022-09-14T08:45:27.564Z,41.17
2022-09-14T08:47:55.632Z,45.91
2022-09-14T08:50:46.408Z,46.19
2022-09-14T08:53:22.782Z,41.93
2022-09-14T08:56:13.735Z,36.44
2022-09-14T08:59:09.167Z,38.38
2022-09-14T09:01:49.550Z,38.99
2022-09-14T09:04:46.750Z,38.78
2022-09-14T09:07:36.994Z,37.06
2022-09-14T09:10:13.989Z,37.57
2022-09-14T09:13:19.631Z,39.21
2022-09-14T09:18:48.143Z,38.32
2022-09-14T09:21:29.253Z,37.71
2022-09-14T09:25:08.603Z,36.70
2022-09-14T09:27:44.531Z,36.01
2022-09-14T09:30:20.621Z,32.26
2022-09-14T09:32:57.027Z,28.88
2022-09-14T09:35:46.479Z,29.53
2022-09-14T09:38:32.425Z,32.63
2022-09-14T09:41:07.523Z,29.37
2022-09-14T09:43:48.810Z,29.57
2022-09-14T09:46:17.579Z,28.09
2022-09-14T09:48:54.205Z,31.97
2022-09-14T09:51:32.005Z,33.47
2022-09-14T09:54:16.481Z,34.65
2022-09-14T09:56:55.213Z,35.91
2022-09-14T09:59:38.055Z,36.55
2022-09-14T10:02:22.746Z,32.69
2022-09-14T10:05:22.710Z,33.31
2022-09-14T10:10:51.477Z,26.59
2022-09-14T10:13:38.819Z,25.93
2022-09-14T10:16:17.298Z,26.92
2022-09-14T10:18:53.990Z,25.16
2022-09-14T10:21:24.320Z,24.01
2022-09-14T10:24:33.308Z,23.17
2022-09-14T10:27:38.315Z,23.24
2022-09-14T10:30:25.797Z,22.50
2022-09-14T10:33:22.970Z,22.02
2022-09-14T10:36:29.676Z,23.74
2022-09-14T10:39:32.623Z,23.84
2022-09-14T10:42:35.683Z,23.65
2022-09-14T10:45:15.515Z,21.07
2022-09-14T10:47:56.131Z,22.20
2022-09-14T10:50:50.166Z,22.46
2022-09-14T10:53:32.363Z,24.11
2022-09-14T10:56:44.469Z,24.56
2022-09-14T10:59:36.929Z,25.31
2022-09-14T11:02:50.982Z,26.96
2022-09-14T11:05:22.838Z,28.32
2022-09-14T11:07:59.534Z,29.20
2022-09-14T11:11:00.771Z,30.01
2022-09-14T11:13:58.020Z,30.97
2022-09-14T11:16:34.235Z,31.77
2022-09-14T11:19:40.501Z,32.40
2022-09-14T11:22:28.681Z,33.53
2022-09-14T11:25:59.480Z,34.30
2022-09-14T11:28:49.983Z,34.75
2022-09-14T11:31:40.080Z,35.35
2022-09-14T11:34:24.606Z,36.33
2022-09-14T11:40:01.999Z,38.12
2022-09-14T11:43:01.385Z,38.96
2022-09-14T11:45:44.999Z,39.20
2022-09-14T11:48:48.063Z,38.77
2022-09-14T11:51:31.064Z,38.10
2022-09-14T11:54:31.573Z,38.19
2022-09-14T11:57:32.354Z,39.16
2022-09-14T12:00:50.817Z,38.85
2022-09-14T12:04:04.679Z,38.69
2022-09-14T12:06:56.689Z,37.58
2022-09-14T12:09:39.822Z,37.66
2022-09-14T12:12:31.279Z,37.47
2022-09-14T12:15:41.010Z,37.74
2022-09-14T12:18:22.750Z,37.87
2022-09-14T12:21:22.981Z,38.27
2022-09-14T12:23:57.921Z,38.42
2022-09-14T12:29:32.767Z,39.40
2022-09-14T12:32:43.309Z,39.38
2022-09-14T12:35:45.122Z,39.26
2022-09-14T12:38:30.798Z,39.68
2022-09-14T12:41:36.598Z,39.67
2022-09-14T12:44:37.535Z,39.57
2022-09-14T12:47:37.890Z,40.18
2022-09-14T12:50:34.583Z,40.54
2022-09-14T12:53:23.425Z,40.84
2022-09-14T12:56:03.761Z,41.10
2022-09-14T12:58:52.131Z,41.86
2022-09-14T13:01:34.370Z,41.29
2022-09-14T13:04:34.944Z,41.56
2022-09-14T13:07:36.315Z,41.88
2022-09-14T13:10:37.068Z,42.26
2022-09-14T13:13:34.230Z,42.62
2022-09-14T13:16:04.430Z,43.19
2022-09-14T13:18:40.569Z,44.25
2022-09-14T13:21:45.826Z,44.03
2022-09-14T13:24:31.738Z,44.29
2022-09-14T13:27:01.210Z,44.13
2022-09-14T13:29:37.545Z,45.16
2022-09-14T13:32:44.174Z,44.68
2022-09-14T13:35:25.365Z,44.71
2022-09-14T13:38:29.746Z,45.27
2022-09-14T13:41:28.400Z,45.39
2022-09-14T13:44:06.106Z,45.40
2022-09-14T13:46:42.761Z,45.96
2022-09-14T13:49:21.610Z,45.71
2022-09-14T13:52:59.978Z,45.97
2022-09-14T13:55:31.464Z,46.08
2022-09-14T13:58:04.954Z,46.17
2022-09-14T14:02:32.255Z,47.71
2022-09-14T14:05:29.182Z,46.48
2022-09-14T14:08:28.175Z,47.03
2022-09-14T14:11:06.435Z,46.83
2022-09-14T14:13:42.302Z,46.60
2022-09-14T14:16:42.564Z,46.11
2022-09-14T14:19:43.799Z,45.62
2022-09-14T14:22:54.683Z,45.95
2022-09-14T14:28:22.805Z,46.58
2022-09-14T14:31:07.729Z,46.03
2022-09-14T14:33:50.985Z,46.32
2022-09-14T14:36:28.502Z,47.57
2022-09-14T14:38:57.371Z,46.61
2022-09-14T14:43:42.828Z,46.61
2022-09-14T14:46:42.934Z,46.69
2022-09-14T14:49:43.050Z,46.59
2022-09-14T14:52:11.613Z,46.89
2022-09-14T14:54:48.191Z,48.33
2022-09-14T14:57:25.852Z,48.96
2022-09-14T15:00:02.305Z,49.47
2022-09-14T15:02:39.057Z,50.13
2022-09-14T15:05:27.245Z,49.57
2022-09-14T15:08:04.003Z,50.44
2022-09-14T15:10:40.833Z,51.02
2022-09-14T15:13:41.045Z,51.54
2022-09-14T15:16:41.117Z,50.51
2022-09-14T15:19:42.197Z,50.46
2022-09-14T15:22:42.493Z,50.20
2022-09-14T15:25:11.749Z,51.00
2022-09-14T15:29:32.280Z,52.74
2022-09-14T15:32:08.630Z,52.98
2022-09-14T15:34:45.580Z,53.95
2022-09-14T15:37:46.531Z,55.59
2022-09-14T15:40:14.491Z,54.96
2022-09-14T15:43:00.290Z,55.57
2022-09-14T15:45:36.609Z,55.37
2022-09-14T15:51:10.368Z,57.01
2022-09-14T15:53:47.757Z,57.13
2022-09-14T15:56:50.951Z,56.38
2022-09-14T15:59:28.592Z,56.81
2022-09-14T16:02:04.730Z,58.50
2022-09-14T16:04:40.492Z,59.02
2022-09-14T16:07:16.600Z,59.24
2022-09-14T16:10:30.381Z,59.73
2022-09-14T16:13:07.302Z,60.04
2022-09-14T16:15:44.258Z,61.95
2022-09-14T16:18:44.419Z,61.55
2022-09-14T16:21:15.392Z,61.47
2022-09-14T16:25:41.966Z,59.17
2022-09-14T16:31:12.044Z,58.75
2022-09-14T16:33:51.182Z,61.00
2022-09-14T16:36:31.415Z,63.04
2022-09-14T16:39:11.977Z,62.22
2022-09-14T16:41:48.587Z,62.21
2022-09-14T16:44:49.231Z,60.98
2022-09-14T16:47:48.997Z,60.31
2022-09-14T16:50:52.377Z,58.12
2022-09-14T16:53:33.473Z,57.42
2022-09-14T16:56:09.202Z,58.73
2022-09-14T17:00:15.131Z,63.53
2022-09-14T17:02:52.365Z,63.62
2022-09-14T17:05:31.020Z,63.12
2022-09-14T17:08:06.914Z,62.44
2022-09-14T17:10:37.862Z,62.31
2022-09-14T17:15:44.006Z,60.83
2022-09-14T17:18:11.752Z,59.58
2022-09-14T17:20:59.882Z,61.75
2022-09-14T17:23:36.610Z,63.54
2022-09-14T17:26:06.385Z,61.58
2022-09-14T17:28:47.367Z,61.42
2022-09-14T17:31:48.051Z,61.96
2022-09-14T17:34:47.969Z,61.06
2022-09-14T17:37:15.765Z,60.72
2022-09-14T17:39:52.640Z,61.38
2022-09-14T17:42:32.005Z,61.36
2022-09-14T17:45:08.680Z,61.05
2022-09-14T17:47:45.986Z,61.38
2022-09-14T17:50:13.772Z,61.71
2022-09-14T17:52:51.048Z,61.46
2022-09-14T17:55:19.247Z,61.28
2022-09-14T17:57:46.941Z,60.73
2022-09-14T18:00:15.249Z,60.28
2022-09-14T18:02:52.349Z,61.12
2022-09-14T18:05:20.874Z,58.66
2022-09-14T18:07:49.635Z,57.82
2022-09-14T18:10:18.737Z,61.44
2022-09-14T18:12:54.972Z,63.68
2022-09-14T18:15:31.315Z,64.01
2022-09-14T18:18:07.929Z,63.36
2022-09-14T18:20:44.006Z,61.93
2022-09-14T18:23:19.921Z,62.08
2022-09-14T18:25:56.455Z,63.13
2022-09-14T18:28:36.659Z,63.70
2022-09-14T18:31:10.914Z,62.75
2022-09-14T18:35:24.111Z,63.57
2022-09-14T18:38:00.933Z,63.20
2022-09-14T18:40:38.395Z,63.20
2022-09-14T18:43:16.819Z,63.37
2022-09-14T18:45:44.953Z,63.18
2022-09-14T18:51:04.557Z,63.29
2022-09-14T18:53:31.324Z,63.65
2022-09-14T18:56:11.317Z,63.18
2022-09-14T18:58:40.843Z,63.51
2022-09-14T19:01:07.875Z,63.15
2022-09-14T19:03:42.965Z,61.23
2022-09-14T19:06:18.573Z,62.17
2022-09-14T19:08:54.866Z,63.23
2022-09-14T19:11:23.087Z,63.75
2022-09-14T19:13:59.789Z,64.02
2022-09-14T19:16:36.783Z,63.48
2022-09-14T19:19:13.963Z,62.24
2022-09-14T19:21:50.178Z,63.67
2022-09-14T19:24:17.200Z,63.89
2022-09-14T19:26:52.432Z,63.02
2022-09-14T19:29:51.844Z,63.72
2022-09-14T19:32:50.771Z,63.98
2022-09-14T19:35:17.189Z,63.38
2022-09-14T19:37:52.261Z,64.20
2022-09-14T19:40:36.851Z,64.22
2022-09-14T19:43:03.212Z,64.08
2022-09-14T19:47:42.610Z,64.49
2022-09-14T19:50:18.878Z,64.55
2022-09-14T19:52:55.707Z,64.32
2022-09-14T19:55:55.820Z,64.00
2022-09-14T19:58:26.175Z,64.01
2022-09-14T20:01:13.672Z,64.30
2022-09-14T20:03:50.392Z,63.03
2022-09-14T20:06:47.192Z,63.06
2022-09-14T20:09:24.054Z,64.00
2022-09-14T20:12:01.157Z,63.22
2022-09-14T20:14:39.852Z,63.14
2022-09-14T20:17:15.880Z,63.99
2022-09-14T20:19:51.893Z,63.92
2022-09-14T20:22:19.776Z,64.59
2022-09-14T20:26:56.828Z,64.42
2022-09-14T20:29:35.364Z,63.19
2022-09-14T20:32:12.430Z,63.32
2022-09-14T20:34:48.192Z,63.82
2022-09-14T20:37:15.893Z,64.90
2022-09-14T20:41:50.221Z,65.60
2022-09-14T20:44:26.524Z,65.49
2022-09-14T20:47:03.350Z,64.73
2022-09-14T20:49:39.332Z,64.55
2022-09-14T20:52:15.301Z,65.51
2022-09-14T20:54:51.333Z,65.30
2022-09-14T20:57:27.315Z,63.48
2022-09-14T21:00:03.629Z,62.69
2022-09-14T21:02:40.862Z,63.57
2022-09-14T21:05:09.026Z,64.77
2022-09-14T21:07:55.998Z,65.25
2022-09-14T21:10:56.018Z,65.53
2022-09-14T21:13:56.690Z,65.81
2022-09-14T21:16:46.162Z,64.64
2022-09-14T21:19:25.106Z,65.20
2022-09-14T21:22:01.404Z,65.61
2022-09-14T21:25:02.094Z,64.82
2022-09-14T21:32:27.306Z,64.25
2022-09-14T21:35:04.321Z,63.75
2022-09-14T21:38:03.851Z,64.61
2022-09-14T21:41:05.550Z,65.41
2022-09-14T21:43:44.741Z,65.84
2022-09-14T21:46:21.965Z,65.16
2022-09-14T21:48:58.230Z,64.83
2022-09-14T21:51:59.292Z,65.52
2022-09-14T21:55:00.012Z,64.07
2022-09-14T21:57:59.775Z,62.86
2022-09-14T22:01:01.064Z,62.89
2022-09-14T22:04:02.364Z,64.31
2022-09-14T22:06:31.481Z,65.42
2022-09-14T22:10:51.032Z,65.95
2022-09-14T22:13:27.917Z,65.65
2022-09-14T22:16:11.926Z,65.72
2022-09-14T22:18:50.823Z,65.35
2022-09-14T22:21:19.099Z,63.80
2022-09-14T22:25:53.627Z,64.95
2022-09-14T22:28:30.221Z,64.36
2022-09-14T22:31:07.417Z,63.54
2022-09-14T22:33:46.212Z,62.89
2022-09-14T22:36:17.604Z,63.32
2022-09-14T22:38:46.668Z,63.59
2022-09-14T22:41:26.149Z,63.91
2022-09-14T22:44:04.758Z,65.18
2022-09-14T22:46:33.046Z,66.08
2022-09-14T22:49:00.930Z,65.57
2022-09-14T22:51:29.502Z,65.90
2022-09-14T22:53:57.900Z,64.52
2022-09-14T22:56:37.019Z,63.55
2022-09-14T22:59:07.084Z,63.56
2022-09-14T23:01:43.523Z,64.96
2022-09-14T23:04:12.831Z,65.57
2022-09-14T23:06:45.847Z,65.75
2022-09-14T23:09:16.241Z,64.62
2022-09-14T23:11:44.685Z,63.50
2022-09-14T23:14:22.199Z,63.85
2022-09-14T23:16:58.477Z,63.99
2022-09-14T23:19:34.304Z,64.54
2022-09-14T23:22:11.091Z,65.73
2022-09-14T23:24:48.132Z,65.60
2022-09-14T23:27:24.404Z,65.47
2022-09-14T23:30:00.479Z,65.77
2022-09-14T23:32:36.346Z,65.92
2022-09-14T23:35:26.769Z,65.74
2022-09-14T23:38:03.314Z,65.80
2022-09-14T23:40:31.304Z,66.08
2022-09-14T23:43:07.497Z,65.59
2022-09-14T23:46:07.265Z,65.74
2022-09-14T23:48:44.043Z,65.62
2022-09-14T23:51:12.164Z,64.10
2022-09-14T23:56:09.332Z,65.55
2022-09-14T23:59:09.908Z,64.73
